sensor_id;sensor_type;location;lat;lon;timestamp;pressure;altitude;pressure_sealevel;temperature;humidity
27805;BME280;15183;51.350;11.102;2023-04-27T00:01:39;100345.16;;;7.04;48.60
27805;BME280;15183;51.350;11.102;2023-04-27T00:07:32;100357.72;;;7.02;48.84
27805;BME280;15183;51.350;11.102;2023-04-27T00:09:58;100354.44;;;7.00;48.73
27805;BME280;15183;51.350;11.102;2023-04-27T00:12:25;100335.00;;;6.79;48.56
27805;BME280;15183;51.350;11.102;2023-04-27T00:14:51;100337.63;;;6.79;48.84
27805;BME280;15183;51.350;11.102;2023-04-27T00:17:17;100338.59;;;6.72;48.96
27805;BME280;15183;51.350;11.102;2023-04-27T00:19:44;100359.41;;;6.88;49.06
27805;BME280;15183;51.350;11.102;2023-04-27T00:22:12;100352.06;;;6.84;49.01
27805;BME280;15183;51.350;11.102;2023-04-27T00:24:39;100348.88;;;6.88;48.99
27805;BME280;15183;51.350;11.102;2023-04-27T00:27:06;100335.63;;;6.81;49.16
27805;BME280;15183;51.350;11.102;2023-04-27T00:29:33;100332.97;;;6.81;48.93
27805;BME280;15183;51.350;11.102;2023-04-27T00:31:59;100361.16;;;7.03;49.02
27805;BME280;15183;51.350;11.102;2023-04-27T00:34:26;100340.97;;;6.88;48.90
27805;BME280;15183;51.350;11.102;2023-04-27T00:36:52;100363.44;;;7.06;48.64
27805;BME280;15183;51.350;11.102;2023-04-27T00:39:18;100366.63;;;7.01;48.56
27805;BME280;15183;51.350;11.102;2023-04-27T00:41:45;100361.34;;;7.01;48.79
27805;BME280;15183;51.350;11.102;2023-04-27T00:44:11;100362.97;;;7.02;48.98
27805;BME280;15183;51.350;11.102;2023-04-27T00:46:38;100344.47;;;6.95;48.80
27805;BME280;15183;51.350;11.102;2023-04-27T00:49:04;100350.63;;;7.03;49.11
27805;BME280;15183;51.350;11.102;2023-04-27T00:51:30;100361.84;;;7.12;48.90
27805;BME280;15183;51.350;11.102;2023-04-27T00:53:57;100357.63;;;7.17;48.95
27805;BME280;15183;51.350;11.102;2023-04-27T00:56:25;100347.72;;;7.19;49.16
27805;BME280;15183;51.350;11.102;2023-04-27T00:58:51;100354.53;;;7.35;48.95
27805;BME280;15183;51.350;11.102;2023-04-27T01:01:17;100332.97;;;7.25;48.82
27805;BME280;15183;51.350;11.102;2023-04-27T01:03:46;100340.34;;;7.36;48.71
27805;BME280;15183;51.350;11.102;2023-04-27T01:06:13;100332.22;;;7.38;48.94
27805;BME280;15183;51.350;11.102;2023-04-27T01:08:39;100344.06;;;7.49;48.62
27805;BME280;15183;51.350;11.102;2023-04-27T01:11:06;100368.53;;;7.64;48.64
27805;BME280;15183;51.350;11.102;2023-04-27T01:13:32;100359.81;;;7.64;48.90
27805;BME280;15183;51.350;11.102;2023-04-27T01:15:59;100372.09;;;7.78;48.41
27805;BME280;15183;51.350;11.102;2023-04-27T01:18:25;100359.47;;;7.74;48.41
27805;BME280;15183;51.350;11.102;2023-04-27T01:20:51;100359.31;;;7.82;48.54
27805;BME280;15183;51.350;11.102;2023-04-27T01:23:18;100364.41;;;7.90;48.55
27805;BME280;15183;51.350;11.102;2023-04-27T01:25:44;100368.91;;;7.90;48.41
27805;BME280;15183;51.350;11.102;2023-04-27T01:28:11;100346.13;;;7.82;48.38
27805;BME280;15183;51.350;11.102;2023-04-27T01:30:37;100351.63;;;7.87;48.54
27805;BME280;15183;51.350;11.102;2023-04-27T01:33:04;100366.44;;;7.88;48.72
27805;BME280;15183;51.350;11.102;2023-04-27T01:35:30;100380.63;;;7.87;48.63
27805;BME280;15183;51.350;11.102;2023-04-27T01:37:57;100347.06;;;7.67;48.84
27805;BME280;15183;51.350;11.102;2023-04-27T01:40:23;100360.88;;;7.70;49.25
27805;BME280;15183;51.350;11.102;2023-04-27T01:42:49;100377.09;;;7.73;48.87
27805;BME280;15183;51.350;11.102;2023-04-27T01:45:16;100369.78;;;7.68;49.33
27805;BME280;15183;51.350;11.102;2023-04-27T01:47:42;100370.19;;;7.72;49.55
27805;BME280;15183;51.350;11.102;2023-04-27T01:50:09;100377.97;;;7.80;49.03
27805;BME280;15183;51.350;11.102;2023-04-27T01:52:35;100381.66;;;7.86;49.04
27805;BME280;15183;51.350;11.102;2023-04-27T01:55:02;100383.31;;;7.94;48.91
27805;BME280;15183;51.350;11.102;2023-04-27T01:57:28;100369.31;;;7.93;49.00
27805;BME280;15183;51.350;11.102;2023-04-27T01:59:55;100364.41;;;7.90;48.89
27805;BME280;15183;51.350;11.102;2023-04-27T02:02:21;100380.19;;;8.12;48.95
27805;BME280;15183;51.350;11.102;2023-04-27T02:04:48;100383.03;;;8.17;48.91
27805;BME280;15183;51.350;11.102;2023-04-27T02:07:14;100393.81;;;8.22;48.85
27805;BME280;15183;51.350;11.102;2023-04-27T02:09:41;100381.00;;;8.19;48.75
27805;BME280;15183;51.350;11.102;2023-04-27T02:12:07;100394.91;;;8.35;48.72
27805;BME280;15183;51.350;11.102;2023-04-27T02:14:34;100389.63;;;8.35;48.85
27805;BME280;15183;51.350;11.102;2023-04-27T02:17:00;100376.97;;;8.23;48.67
27805;BME280;15183;51.350;11.102;2023-04-27T02:19:26;100400.41;;;8.47;48.64
27805;BME280;15183;51.350;11.102;2023-04-27T02:21:53;100394.50;;;8.38;48.87
27805;BME280;15183;51.350;11.102;2023-04-27T02:24:19;100394.91;;;8.35;48.77
27805;BME280;15183;51.350;11.102;2023-04-27T02:26:46;100405.59;;;8.26;49.05
27805;BME280;15183;51.350;11.102;2023-04-27T02:29:12;100399.09;;;8.16;49.11
27805;BME280;15183;51.350;11.102;2023-04-27T02:31:39;100393.66;;;7.89;49.13
27805;BME280;15183;51.350;11.102;2023-04-27T02:34:05;100392.97;;;7.80;49.31
27805;BME280;15183;51.350;11.102;2023-04-27T02:36:31;100395.38;;;7.75;49.21
27805;BME280;15183;51.350;11.102;2023-04-27T02:38:58;100392.91;;;7.66;49.52
27805;BME280;15183;51.350;11.102;2023-04-27T02:41:24;100398.16;;;7.66;49.71
27805;BME280;15183;51.350;11.102;2023-04-27T02:43:53;100396.94;;;7.62;49.69
27805;BME280;15183;51.350;11.102;2023-04-27T02:46:19;100404.69;;;7.71;49.82
27805;BME280;15183;51.350;11.102;2023-04-27T02:48:45;100410.19;;;7.76;49.87
27805;BME280;15183;51.350;11.102;2023-04-27T02:51:12;100392.06;;;7.66;49.70
27805;BME280;15183;51.350;11.102;2023-04-27T02:53:38;100413.31;;;7.86;49.69
27805;BME280;15183;51.350;11.102;2023-04-27T02:56:05;100369.09;;;7.60;49.64
27805;BME280;15183;51.350;11.102;2023-04-27T02:58:31;100414.03;;;8.02;49.79
27805;BME280;15183;51.350;11.102;2023-04-27T03:00:58;100404.09;;;8.04;49.40
27805;BME280;15183;51.350;11.102;2023-04-27T03:03:24;100424.06;;;8.20;49.31
27805;BME280;15183;51.350;11.102;2023-04-27T03:05:51;100406.34;;;8.14;49.28
27805;BME280;15183;51.350;11.102;2023-04-27T03:08:17;100428.59;;;8.33;49.35
27805;BME280;15183;51.350;11.102;2023-04-27T03:10:43;100424.13;;;8.33;49.13
27805;BME280;15183;51.350;11.102;2023-04-27T03:13:10;100425.56;;;8.36;49.19
27805;BME280;15183;51.350;11.102;2023-04-27T03:15:36;100431.25;;;8.39;49.07
27805;BME280;15183;51.350;11.102;2023-04-27T03:18:03;100426.19;;;8.38;49.36
27805;BME280;15183;51.350;11.102;2023-04-27T03:20:29;100341.63;;;7.76;49.07
27805;BME280;15183;51.350;11.102;2023-04-27T03:22:57;100416.78;;;8.22;49.26
27805;BME280;15183;51.350;11.102;2023-04-27T03:25:23;100417.31;;;8.10;49.44
27805;BME280;15183;51.350;11.102;2023-04-27T03:27:49;100438.47;;;8.17;49.56
27805;BME280;15183;51.350;11.102;2023-04-27T03:30:16;100433.00;;;8.19;49.52
27805;BME280;15183;51.350;11.102;2023-04-27T03:32:42;100433.63;;;8.21;49.58
27805;BME280;15183;51.350;11.102;2023-04-27T03:35:09;100440.31;;;8.23;49.38
27805;BME280;15183;51.350;11.102;2023-04-27T03:37:35;100439.69;;;8.15;49.35
27805;BME280;15183;51.350;11.102;2023-04-27T03:40:02;100434.59;;;8.13;49.45
27805;BME280;15183;51.350;11.102;2023-04-27T03:42:32;100452.09;;;8.21;49.44
27805;BME280;15183;51.350;11.102;2023-04-27T03:44:58;100440.88;;;8.12;49.37
27805;BME280;15183;51.350;11.102;2023-04-27T03:47:25;100432.28;;;8.03;49.53
27805;BME280;15183;51.350;11.102;2023-04-27T03:49:51;100440.44;;;8.08;49.55
27805;BME280;15183;51.350;11.102;2023-04-27T03:52:17;100450.03;;;8.16;49.81
27805;BME280;15183;51.350;11.102;2023-04-27T03:54:44;100444.97;;;8.21;49.52
27805;BME280;15183;51.350;11.102;2023-04-27T03:57:10;100439.53;;;8.30;49.62
27805;BME280;15183;51.350;11.102;2023-04-27T03:59:37;100438.78;;;8.36;49.67
27805;BME280;15183;51.350;11.102;2023-04-27T04:02:03;100442.06;;;8.45;49.54
27805;BME280;15183;51.350;11.102;2023-04-27T04:04:30;100440.84;;;8.47;49.13
27805;BME280;15183;51.350;11.102;2023-04-27T04:06:57;100447.00;;;8.54;49.29
27805;BME280;15183;51.350;11.102;2023-04-27T04:09:23;100419.50;;;8.42;49.47
27805;BME280;15183;51.350;11.102;2023-04-27T04:11:51;100431.56;;;8.51;49.47
27805;BME280;15183;51.350;11.102;2023-04-27T04:14:17;100437.03;;;8.50;49.08
27805;BME280;15183;51.350;11.102;2023-04-27T04:16:44;100425.19;;;8.39;49.40
27805;BME280;15183;51.350;11.102;2023-04-27T04:19:10;100451.50;;;8.54;49.21
27805;BME280;15183;51.350;11.102;2023-04-27T04:21:36;100444.19;;;8.56;49.56
27805;BME280;15183;51.350;11.102;2023-04-27T04:24:03;100451.28;;;8.56;49.27
27805;BME280;15183;51.350;11.102;2023-04-27T04:26:29;100432.31;;;8.45;49.28
27805;BME280;15183;51.350;11.102;2023-04-27T04:28:56;100461.88;;;8.62;49.43
27805;BME280;15183;51.350;11.102;2023-04-27T04:31:22;100454.34;;;8.66;49.38
27805;BME280;15183;51.350;11.102;2023-04-27T04:33:49;100455.38;;;8.65;49.40
27805;BME280;15183;51.350;11.102;2023-04-27T04:36:15;100459.25;;;8.69;49.39
27805;BME280;15183;51.350;11.102;2023-04-27T04:38:42;100457.88;;;8.73;49.27
27805;BME280;15183;51.350;11.102;2023-04-27T04:41:08;100446.25;;;8.67;49.51
27805;BME280;15183;51.350;11.102;2023-04-27T04:43:35;100421.44;;;8.55;49.58
27805;BME280;15183;51.350;11.102;2023-04-27T04:46:01;100446.06;;;8.76;49.44
27805;BME280;15183;51.350;11.102;2023-04-27T04:48:28;100448.31;;;8.79;48.73
27805;BME280;15183;51.350;11.102;2023-04-27T04:50:54;100446.91;;;8.76;49.03
27805;BME280;15183;51.350;11.102;2023-04-27T04:53:22;100444.22;;;8.69;48.79
27805;BME280;15183;51.350;11.102;2023-04-27T04:55:48;100457.63;;;8.68;48.61
27805;BME280;15183;51.350;11.102;2023-04-27T04:58:15;100458.84;;;8.65;48.92
27805;BME280;15183;51.350;11.102;2023-04-27T05:00:41;100465.72;;;8.60;48.56
27805;BME280;15183;51.350;11.102;2023-04-27T05:03:08;100461.66;;;8.57;48.97
27805;BME280;15183;51.350;11.102;2023-04-27T05:05:34;100450.22;;;8.50;49.08
27805;BME280;15183;51.350;11.102;2023-04-27T05:08:00;100454.44;;;8.44;48.68
27805;BME280;15183;51.350;11.102;2023-04-27T05:10:27;100453.84;;;8.42;49.20
27805;BME280;15183;51.350;11.102;2023-04-27T05:12:54;100457.09;;;8.44;48.84
27805;BME280;15183;51.350;11.102;2023-04-27T05:15:20;100436.91;;;8.30;48.97
27805;BME280;15183;51.350;11.102;2023-04-27T05:17:46;100460.53;;;8.45;49.25
27805;BME280;15183;51.350;11.102;2023-04-27T05:20:13;100463.06;;;8.53;49.33
27805;BME280;15183;51.350;11.102;2023-04-27T05:22:39;100426.78;;;8.33;49.33
27805;BME280;15183;51.350;11.102;2023-04-27T05:25:06;100470.19;;;8.59;49.41
27805;BME280;15183;51.350;11.102;2023-04-27T05:27:34;100462.47;;;8.58;49.16
27805;BME280;15183;51.350;11.102;2023-04-27T05:30:00;100468.56;;;8.65;49.38
27805;BME280;15183;51.350;11.102;2023-04-27T05:32:27;100483.75;;;8.91;49.51
27805;BME280;15183;51.350;11.102;2023-04-27T05:34:53;100462.59;;;8.91;49.45
27805;BME280;15183;51.350;11.102;2023-04-27T05:37:20;100479.72;;;9.22;49.31
27805;BME280;15183;51.350;11.102;2023-04-27T05:39:46;100493.59;;;9.45;49.58
27805;BME280;15183;51.350;11.102;2023-04-27T05:42:13;100480.41;;;9.51;49.27
27805;BME280;15183;51.350;11.102;2023-04-27T05:44:39;100500.56;;;9.79;49.29
27805;BME280;15183;51.350;11.102;2023-04-27T05:47:05;100487.13;;;9.88;49.11
27805;BME280;15183;51.350;11.102;2023-04-27T05:49:32;100500.94;;;10.10;48.94
27805;BME280;15183;51.350;11.102;2023-04-27T05:51:58;100503.78;;;10.22;49.30
27805;BME280;15183;51.350;11.102;2023-04-27T05:54:24;100501.31;;;10.47;49.28
27805;BME280;15183;51.350;11.102;2023-04-27T05:56:52;100505.16;;;10.58;48.70
27805;BME280;15183;51.350;11.102;2023-04-27T05:59:18;100511.59;;;10.76;48.76
27805;BME280;15183;51.350;11.102;2023-04-27T06:01:45;100503.22;;;10.85;48.29
27805;BME280;15183;51.350;11.102;2023-04-27T06:04:11;100516.56;;;11.11;48.24
27805;BME280;15183;51.350;11.102;2023-04-27T06:06:38;100510.19;;;11.19;48.29
27805;BME280;15183;51.350;11.102;2023-04-27T06:09:04;100506.25;;;11.28;47.98
27805;BME280;15183;51.350;11.102;2023-04-27T06:11:31;100495.22;;;11.31;48.22
27805;BME280;15183;51.350;11.102;2023-04-27T06:13:57;100508.84;;;11.41;48.22
27805;BME280;15183;51.350;11.102;2023-04-27T06:16:23;100511.44;;;11.48;48.10
27805;BME280;15183;51.350;11.102;2023-04-27T06:18:50;100519.97;;;11.57;48.30
27805;BME280;15183;51.350;11.102;2023-04-27T06:21:17;100497.81;;;11.44;48.47
27805;BME280;15183;51.350;11.102;2023-04-27T06:23:43;100500.09;;;11.34;48.23
27805;BME280;15183;51.350;11.102;2023-04-27T06:26:10;100505.31;;;11.15;48.10
27805;BME280;15183;51.350;11.102;2023-04-27T06:28:36;100495.81;;;11.01;48.40
27805;BME280;15183;51.350;11.102;2023-04-27T06:31:03;100528.63;;;11.07;48.62
27805;BME280;15183;51.350;11.102;2023-04-27T06:33:29;100520.88;;;11.05;48.74
27805;BME280;15183;51.350;11.102;2023-04-27T06:35:56;100514.97;;;11.03;48.65
27805;BME280;15183;51.350;11.102;2023-04-27T06:38:22;100514.56;;;10.99;48.60
27805;BME280;15183;51.350;11.102;2023-04-27T06:40:51;100526.75;;;11.14;48.73
27805;BME280;15183;51.350;11.102;2023-04-27T06:43:18;100515.06;;;11.22;48.74
27805;BME280;15183;51.350;11.102;2023-04-27T06:45:44;100520.94;;;11.31;48.44
27805;BME280;15183;51.350;11.102;2023-04-27T06:48:11;100517.25;;;11.38;48.72
27805;BME280;15183;51.350;11.102;2023-04-27T06:50:37;100513.03;;;11.56;48.63
27805;BME280;15183;51.350;11.102;2023-04-27T06:53:03;100514.06;;;11.80;48.77
27805;BME280;15183;51.350;11.102;2023-04-27T06:55:30;100511.44;;;12.06;48.49
27805;BME280;15183;51.350;11.102;2023-04-27T06:58:05;100520.94;;;12.39;48.78
27805;BME280;15183;51.350;11.102;2023-04-27T07:00:32;100507.06;;;12.55;48.26
27805;BME280;15183;51.350;11.102;2023-04-27T07:02:58;100523.28;;;12.84;48.31
27805;BME280;15183;51.350;11.102;2023-04-27T07:05:25;100502.88;;;12.97;48.00
27805;BME280;15183;51.350;11.102;2023-04-27T07:07:51;100528.00;;;13.31;47.92
27805;BME280;15183;51.350;11.102;2023-04-27T07:10:18;100522.88;;;13.49;47.53
27805;BME280;15183;51.350;11.102;2023-04-27T07:12:45;100502.84;;;13.46;46.97
27805;BME280;15183;51.350;11.102;2023-04-27T07:15:11;100529.06;;;13.73;46.68
27805;BME280;15183;51.350;11.102;2023-04-27T07:17:38;100520.97;;;13.80;46.60
27805;BME280;15183;51.350;11.102;2023-04-27T07:20:05;100535.56;;;14.01;46.48
27805;BME280;15183;51.350;11.102;2023-04-27T07:22:32;100527.00;;;14.11;46.26
27805;BME280;15183;51.350;11.102;2023-04-27T07:24:59;100525.63;;;14.20;45.55
27805;BME280;15183;51.350;11.102;2023-04-27T07:27:25;100508.94;;;14.13;45.35
27805;BME280;15183;51.350;11.102;2023-04-27T07:29:52;100530.22;;;14.37;45.47
27805;BME280;15183;51.350;11.102;2023-04-27T07:32:18;100530.22;;;14.48;45.01
27805;BME280;15183;51.350;11.102;2023-04-27T07:34:45;100526.88;;;14.53;44.87
27805;BME280;15183;51.350;11.102;2023-04-27T07:37:13;100529.25;;;14.67;44.71
27805;BME280;15183;51.350;11.102;2023-04-27T07:39:41;100539.56;;;14.87;44.31
27805;BME280;15183;51.350;11.102;2023-04-27T07:42:07;100533.63;;;14.97;44.53
27805;BME280;15183;51.350;11.102;2023-04-27T07:44:34;100528.38;;;15.02;44.06
27805;BME280;15183;51.350;11.102;2023-04-27T07:47:00;100534.25;;;15.16;44.08
27805;BME280;15183;51.350;11.102;2023-04-27T07:49:30;100528.47;;;15.36;44.21
27805;BME280;15183;51.350;11.102;2023-04-27T07:51:57;100531.88;;;15.48;43.65
27805;BME280;15183;51.350;11.102;2023-04-27T07:54:23;100536.91;;;15.62;43.78
27805;BME280;15183;51.350;11.102;2023-04-27T07:56:50;100536.09;;;15.78;43.73
27805;BME280;15183;51.350;11.102;2023-04-27T07:59:17;100506.09;;;15.88;43.18
27805;BME280;15183;51.350;11.102;2023-04-27T08:01:43;100536.59;;;16.27;43.23
27805;BME280;15183;51.350;11.102;2023-04-27T08:04:09;100522.34;;;16.43;42.70
27805;BME280;15183;51.350;11.102;2023-04-27T08:06:38;100525.19;;;16.76;42.90
27805;BME280;15183;51.350;11.102;2023-04-27T08:09:04;100507.97;;;16.94;42.32
27805;BME280;15183;51.350;11.102;2023-04-27T08:11:31;100526.16;;;17.42;42.51
27805;BME280;15183;51.350;11.102;2023-04-27T08:13:57;100535.50;;;17.72;42.04
27805;BME280;15183;51.350;11.102;2023-04-27T08:16:24;100520.06;;;17.84;41.29
27805;BME280;15183;51.350;11.102;2023-04-27T08:18:50;100524.22;;;18.02;41.02
27805;BME280;15183;51.350;11.102;2023-04-27T08:21:17;100536.69;;;18.19;40.00
27805;BME280;15183;51.350;11.102;2023-04-27T08:23:43;100539.66;;;18.28;39.96
27805;BME280;15183;51.350;11.102;2023-04-27T08:26:14;100549.34;;;18.34;39.93
27805;BME280;15183;51.350;11.102;2023-04-27T08:28:41;100544.59;;;18.41;39.89
27805;BME280;15183;51.350;11.102;2023-04-27T08:31:07;100551.59;;;18.52;38.95
27805;BME280;15183;51.350;11.102;2023-04-27T08:33:34;100545.72;;;18.61;39.47
27805;BME280;15183;51.350;11.102;2023-04-27T08:36:00;100549.84;;;18.79;38.92
27805;BME280;15183;51.350;11.102;2023-04-27T08:38:26;100535.91;;;18.87;38.97
27805;BME280;15183;51.350;11.102;2023-04-27T08:40:53;100538.13;;;19.06;38.49
27805;BME280;15183;51.350;11.102;2023-04-27T08:43:19;100531.72;;;19.17;38.22
27805;BME280;15183;51.350;11.102;2023-04-27T08:45:48;100528.78;;;19.24;38.08
27805;BME280;15183;51.350;11.102;2023-04-27T08:48:18;100527.69;;;19.30;38.18
27805;BME280;15183;51.350;11.102;2023-04-27T08:50:49;100538.19;;;19.37;37.72
27805;BME280;15183;51.350;11.102;2023-04-27T08:53:18;100513.72;;;19.38;37.76
27805;BME280;15183;51.350;11.102;2023-04-27T08:55:46;100512.94;;;19.48;37.92
27805;BME280;15183;51.350;11.102;2023-04-27T08:58:12;100518.84;;;19.56;37.91
27805;BME280;15183;51.350;11.102;2023-04-27T09:00:40;100523.16;;;19.72;37.61
27805;BME280;15183;51.350;11.102;2023-04-27T09:03:24;100509.69;;;19.77;37.14
27805;BME280;15183;51.350;11.102;2023-04-27T09:05:51;100511.59;;;19.72;37.37
27805;BME280;15183;51.350;11.102;2023-04-27T09:08:17;100504.31;;;19.77;37.23
27805;BME280;15183;51.350;11.102;2023-04-27T09:10:51;100511.56;;;19.82;37.03
27805;BME280;15183;51.350;11.102;2023-04-27T09:13:18;100490.34;;;19.80;36.69
27805;BME280;15183;51.350;11.102;2023-04-27T09:15:47;100510.78;;;19.97;36.18
27805;BME280;15183;51.350;11.102;2023-04-27T09:18:21;100506.44;;;20.01;36.20
27805;BME280;15183;51.350;11.102;2023-04-27T09:20:50;100496.75;;;20.16;36.19
27805;BME280;15183;51.350;11.102;2023-04-27T09:23:37;100512.00;;;20.41;35.91
27805;BME280;15183;51.350;11.102;2023-04-27T09:26:07;100505.50;;;20.47;35.88
27805;BME280;15183;51.350;11.102;2023-04-27T09:28:37;100510.84;;;20.58;35.51
27805;BME280;15183;51.350;11.102;2023-04-27T09:31:04;100498.22;;;20.58;35.42
27805;BME280;15183;51.350;11.102;2023-04-27T09:33:33;100500.34;;;20.61;34.95
27805;BME280;15183;51.350;11.102;2023-04-27T09:36:03;100471.59;;;20.46;34.85
27805;BME280;15183;51.350;11.102;2023-04-27T09:38:31;100494.88;;;20.77;34.73
27805;BME280;15183;51.350;11.102;2023-04-27T09:40:58;100492.63;;;21.00;34.80
27805;BME280;15183;51.350;11.102;2023-04-27T09:43:25;100473.16;;;21.08;34.86
27805;BME280;15183;51.350;11.102;2023-04-27T09:45:54;100497.75;;;21.36;34.42
27805;BME280;15183;51.350;11.102;2023-04-27T09:48:22;100479.41;;;21.38;33.94
27805;BME280;15183;51.350;11.102;2023-04-27T09:50:51;100486.19;;;21.30;34.33
27805;BME280;15183;51.350;11.102;2023-04-27T09:53:48;100478.47;;;21.18;34.00
27805;BME280;15183;51.350;11.102;2023-04-27T09:59:38;100481.72;;;21.15;34.24
27805;BME280;15183;51.350;11.102;2023-04-27T10:02:09;100471.84;;;21.05;33.85
27805;BME280;15183;51.350;11.102;2023-04-27T10:07:38;100448.50;;;20.90;33.66
27805;BME280;15183;51.350;11.102;2023-04-27T10:10:14;100487.69;;;21.12;32.96
27805;BME280;15183;51.350;11.102;2023-04-27T10:12:42;100470.50;;;21.03;33.42
27805;BME280;15183;51.350;11.102;2023-04-27T10:15:16;100474.81;;;21.04;33.61
27805;BME280;15183;51.350;11.102;2023-04-27T10:17:50;100481.53;;;21.01;33.34
27805;BME280;15183;51.350;11.102;2023-04-27T10:20:34;100473.78;;;20.94;33.32
27805;BME280;15183;51.350;11.102;2023-04-27T10:23:01;100481.03;;;20.99;33.08
27805;BME280;15183;51.350;11.102;2023-04-27T10:25:40;100480.28;;;20.93;33.42
27805;BME280;15183;51.350;11.102;2023-04-27T10:28:07;100475.75;;;20.84;33.26
27805;BME280;15183;51.350;11.102;2023-04-27T10:30:37;100487.34;;;20.84;33.35
27805;BME280;15183;51.350;11.102;2023-04-27T10:33:08;100477.91;;;20.76;33.10
27805;BME280;15183;51.350;11.102;2023-04-27T10:35:41;100466.66;;;20.64;32.99
27805;BME280;15183;51.350;11.102;2023-04-27T10:38:17;100492.53;;;20.65;32.99
27805;BME280;15183;51.350;11.102;2023-04-27T10:40:53;100487.72;;;20.51;33.46
27805;BME280;15183;51.350;11.102;2023-04-27T10:43:25;100488.56;;;20.42;33.20
27805;BME280;15183;51.350;11.102;2023-04-27T10:45:52;100488.06;;;20.34;33.10
27805;BME280;15183;51.350;11.102;2023-04-27T10:48:19;100487.47;;;20.43;33.40
27805;BME280;15183;51.350;11.102;2023-04-27T10:54:28;100484.44;;;20.65;33.84
27805;BME280;15183;51.350;11.102;2023-04-27T10:57:10;100486.22;;;20.90;33.11
27805;BME280;15183;51.350;11.102;2023-04-27T10:59:52;100465.84;;;21.14;32.78
27805;BME280;15183;51.350;11.102;2023-04-27T11:02:28;100478.56;;;21.43;32.79
27805;BME280;15183;51.350;11.102;2023-04-27T11:04:55;100463.38;;;21.52;32.33
27805;BME280;15183;51.350;11.102;2023-04-27T11:07:25;100477.44;;;21.78;32.61
27805;BME280;15183;51.350;11.102;2023-04-27T11:09:53;100474.06;;;21.92;32.11
27805;BME280;15183;51.350;11.102;2023-04-27T11:12:19;100463.63;;;21.85;32.31
27805;BME280;15183;51.350;11.102;2023-04-27T11:14:46;100463.50;;;21.71;31.31
27805;BME280;15183;51.350;11.102;2023-04-27T11:17:13;100462.00;;;21.54;31.85
27805;BME280;15183;51.350;11.102;2023-04-27T11:19:46;100446.00;;;21.34;31.78
27805;BME280;15183;51.350;11.102;2023-04-27T11:22:14;100471.56;;;21.42;32.18
27805;BME280;15183;51.350;11.102;2023-04-27T11:24:52;100458.44;;;21.30;32.49
27805;BME280;15183;51.350;11.102;2023-04-27T11:27:18;100452.03;;;21.20;32.56
27805;BME280;15183;51.350;11.102;2023-04-27T11:29:47;100466.06;;;21.17;32.17
27805;BME280;15183;51.350;11.102;2023-04-27T11:32:21;100453.00;;;21.00;32.09
27805;BME280;15183;51.350;11.102;2023-04-27T11:34:52;100451.13;;;21.01;32.16
27805;BME280;15183;51.350;11.102;2023-04-27T11:37:24;100452.16;;;21.05;31.16
27805;BME280;15183;51.350;11.102;2023-04-27T11:39:52;100453.91;;;20.90;31.55
27805;BME280;15183;51.350;11.102;2023-04-27T11:43:03;100459.03;;;20.87;32.53
27805;BME280;15183;51.350;11.102;2023-04-27T11:45:29;100441.00;;;20.87;32.13
27805;BME280;15183;51.350;11.102;2023-04-27T11:47:59;100431.22;;;20.96;31.90
27805;BME280;15183;51.350;11.102;2023-04-27T11:50:26;100442.34;;;21.19;31.83
27805;BME280;15183;51.350;11.102;2023-04-27T11:52:53;100453.25;;;21.38;31.12
27805;BME280;15183;51.350;11.102;2023-04-27T11:55:20;100445.44;;;21.37;31.49
27805;BME280;15183;51.350;11.102;2023-04-27T11:57:47;100451.00;;;21.51;31.81
27805;BME280;15183;51.350;11.102;2023-04-27T12:00:14;100448.47;;;21.65;31.59
27805;BME280;15183;51.350;11.102;2023-04-27T12:02:42;100457.81;;;21.73;31.28
27805;BME280;15183;51.350;11.102;2023-04-27T12:05:09;100445.50;;;21.61;31.40
27805;BME280;15183;51.350;11.102;2023-04-27T12:07:37;100460.38;;;21.53;31.16
27805;BME280;15183;51.350;11.102;2023-04-27T12:10:05;100446.91;;;21.24;30.94
27805;BME280;15183;51.350;11.102;2023-04-27T12:12:31;100457.81;;;21.08;31.29
27805;BME280;15183;51.350;11.102;2023-04-27T12:14:58;100434.22;;;20.90;31.78
27805;BME280;15183;51.350;11.102;2023-04-27T12:17:25;100433.47;;;20.84;32.26
27805;BME280;15183;51.350;11.102;2023-04-27T12:19:51;100450.03;;;21.02;31.54
27805;BME280;15183;51.350;11.102;2023-04-27T12:22:18;100451.66;;;21.03;31.81
27805;BME280;15183;51.350;11.102;2023-04-27T12:24:45;100449.16;;;21.11;31.65
27805;BME280;15183;51.350;11.102;2023-04-27T12:27:11;100450.22;;;21.16;31.48
27805;BME280;15183;51.350;11.102;2023-04-27T12:29:38;100456.31;;;21.27;31.28
27805;BME280;15183;51.350;11.102;2023-04-27T12:32:04;100448.81;;;21.23;30.87
27805;BME280;15183;51.350;11.102;2023-04-27T12:38:12;100423.38;;;20.55;31.90
27805;BME280;15183;51.350;11.102;2023-04-27T12:40:39;100443.91;;;20.46;30.86
27805;BME280;15183;51.350;11.102;2023-04-27T12:43:07;100433.22;;;20.20;31.75
27805;BME280;15183;51.350;11.102;2023-04-27T12:45:33;100425.47;;;20.08;32.10
27805;BME280;15183;51.350;11.102;2023-04-27T12:48:22;100437.59;;;20.00;31.74
27805;BME280;15183;51.350;11.102;2023-04-27T12:50:48;100415.84;;;19.76;32.07
27805;BME280;15183;51.350;11.102;2023-04-27T12:53:15;100432.22;;;19.90;31.49
27805;BME280;15183;51.350;11.102;2023-04-27T12:55:41;100407.78;;;19.76;32.10
27805;BME280;15183;51.350;11.102;2023-04-27T12:58:08;100381.47;;;19.67;31.36
27805;BME280;15183;51.350;11.102;2023-04-27T13:00:34;100396.47;;;19.84;31.34
27805;BME280;15183;51.350;11.102;2023-04-27T13:03:01;100408.00;;;20.00;30.95
27805;BME280;15183;51.350;11.102;2023-04-27T13:05:27;100410.16;;;20.08;31.67